createdAt,value
2019-05-21T00:00:23.732Z,12.60
2019-05-21T00:04:28.795Z,12.50
2019-05-21T00:08:33.659Z,12.40
2019-05-21T00:12:38.455Z,12.40
2019-05-21T00:16:43.324Z,12.20
2019-05-21T00:20:48.203Z,12.30
2019-05-21T00:24:53.581Z,12.20
2019-05-21T00:29:34.661Z,12.20
2019-05-21T00:34:15.573Z,12.10
2019-05-21T00:38:56.437Z,12.10
2019-05-21T00:43:01.983Z,12.00
2019-05-21T00:47:08.303Z,12.10
2019-05-21T00:51:13.216Z,12.10
2019-05-21T00:55:18.968Z,12.10
2019-05-21T00:59:23.859Z,12.20
2019-05-21T01:03:28.665Z,12.40
2019-05-21T01:07:33.584Z,12.30
2019-05-21T01:11:38.777Z,12.20
2019-05-21T01:15:43.644Z,12.30
2019-05-21T01:19:48.461Z,12.20
2019-05-21T01:23:53.287Z,12.10
2019-05-21T01:27:58.161Z,12.10
2019-05-21T01:32:03.405Z,12.10
2019-05-21T01:36:08.628Z,12.10
2019-05-21T01:40:13.540Z,12.10
2019-05-21T01:44:18.446Z,12.00
2019-05-21T01:48:23.380Z,12.00
2019-05-21T01:52:28.127Z,12.00
2019-05-21T01:56:32.873Z,12.00
2019-05-21T02:00:37.738Z,12.00
2019-05-21T02:04:42.584Z,12.00
2019-05-21T02:08:47.422Z,12.10
2019-05-21T02:12:52.304Z,12.00
2019-05-21T02:16:58.315Z,12.00
2019-05-21T02:21:03.128Z,11.90
2019-05-21T02:25:08.620Z,11.90
2019-05-21T02:29:13.440Z,11.90
2019-05-21T02:33:18.203Z,11.80
2019-05-21T02:37:22.940Z,11.70
2019-05-21T02:41:28.906Z,11.70
2019-05-21T02:45:34.040Z,11.70
2019-05-21T02:49:38.819Z,11.70
2019-05-21T02:53:44.082Z,11.60
2019-05-21T02:57:48.974Z,11.60
2019-05-21T03:02:02.717Z,11.50
2019-05-21T03:06:13.767Z,11.50
2019-05-21T03:10:14.452Z,11.50
2019-05-21T03:14:20.842Z,11.50
2019-05-21T03:18:27.179Z,11.60
2019-05-21T03:22:31.985Z,11.50
2019-05-21T03:26:36.884Z,11.40
2019-05-21T03:30:41.701Z,11.40
2019-05-21T03:34:46.553Z,11.50
2019-05-21T03:38:51.445Z,11.40
2019-05-21T03:42:56.295Z,11.30
2019-05-21T03:47:01.256Z,11.30
2019-05-21T03:51:06.191Z,11.30
2019-05-21T03:55:11.678Z,11.30
2019-05-21T03:59:16.484Z,11.20
2019-05-21T04:03:21.297Z,11.30
2019-05-21T04:07:26.101Z,11.30
2019-05-21T04:11:30.909Z,11.30
2019-05-21T04:15:59.982Z,11.30
2019-05-21T04:20:05.612Z,11.30
2019-05-21T04:24:10.788Z,11.20
2019-05-21T04:28:15.725Z,11.10
2019-05-21T04:32:20.513Z,11.00
2019-05-21T04:36:25.507Z,11.10
2019-05-21T04:40:30.455Z,11.10
2019-05-21T04:44:35.353Z,11.00
2019-05-21T04:48:40.201Z,11.00
2019-05-21T04:52:45.093Z,11.10
2019-05-21T04:56:49.932Z,11.10
2019-05-21T05:00:54.816Z,11.10
2019-05-21T05:04:59.737Z,11.10
2019-05-21T05:09:06.135Z,11.10
2019-05-21T05:13:10.926Z,11.10
2019-05-21T05:17:16.631Z,11.00
2019-05-21T05:21:21.372Z,11.00
2019-05-21T05:25:26.492Z,11.00
2019-05-21T05:29:31.296Z,10.90
2019-05-21T05:33:36.144Z,11.00
2019-05-21T05:37:44.489Z,10.90
2019-05-21T05:41:47.793Z,10.90
2019-05-21T05:45:52.619Z,11.00
2019-05-21T05:49:59.113Z,11.00
2019-05-21T05:54:07.401Z,11.10
2019-05-21T05:58:10.489Z,11.10
2019-05-21T06:02:15.371Z,11.10
2019-05-21T06:06:20.267Z,11.20
2019-05-21T06:10:25.162Z,11.20
2019-05-21T06:14:30.022Z,11.20
2019-05-21T06:18:35.690Z,11.30
2019-05-21T06:22:40.731Z,11.30
2019-05-21T06:26:46.778Z,11.30
2019-05-21T06:30:51.597Z,11.30
2019-05-21T06:34:56.396Z,11.30
2019-05-21T06:39:01.284Z,11.30
2019-05-21T06:43:07.718Z,11.40
2019-05-21T06:47:12.631Z,11.40
2019-05-21T06:51:18.556Z,11.50
2019-05-21T06:55:23.441Z,11.40
2019-05-21T06:59:28.286Z,11.30
2019-05-21T07:03:33.187Z,11.30
2019-05-21T07:07:39.376Z,11.40
2019-05-21T07:11:44.195Z,11.30
2019-05-21T07:15:49.025Z,11.20
2019-05-21T07:19:54.005Z,11.20
2019-05-21T07:23:58.865Z,11.10
2019-05-21T07:28:03.756Z,11.10
2019-05-21T07:32:08.668Z,11.20
2019-05-21T07:36:13.472Z,11.20
2019-05-21T07:40:19.079Z,11.20
2019-05-21T07:44:24.157Z,11.30
2019-05-21T07:48:29.023Z,11.10
2019-05-21T07:52:34.222Z,11.10
2019-05-21T07:56:39.039Z,11.20
2019-05-21T08:00:44.064Z,11.10
2019-05-21T08:04:48.964Z,11.10
2019-05-21T08:09:11.359Z,11.20
2019-05-21T08:13:00.309Z,11.20
2019-05-21T08:17:05.198Z,11.20
2019-05-21T08:21:10.012Z,11.20
2019-05-21T08:25:15.263Z,11.20
2019-05-21T08:29:20.234Z,11.20
2019-05-21T08:33:25.048Z,11.30
2019-05-21T08:37:29.854Z,11.20
2019-05-21T08:41:34.718Z,11.20
2019-05-21T08:45:39.536Z,11.20
2019-05-21T08:49:44.463Z,11.30
2019-05-21T08:53:49.340Z,11.20
2019-05-21T08:58:06.591Z,11.00
2019-05-21T09:02:00.836Z,11.00
2019-05-21T09:06:05.957Z,11.10
2019-05-21T09:10:12.255Z,11.20
2019-05-21T09:14:19.596Z,11.40
2019-05-21T09:18:24.496Z,11.40
2019-05-21T09:22:29.367Z,11.50
2019-05-21T09:26:34.154Z,11.50
2019-05-21T09:30:38.989Z,11.50
2019-05-21T09:34:48.689Z,11.70
2019-05-21T09:38:50.707Z,11.70
2019-05-21T09:42:55.610Z,11.90
2019-05-21T09:47:00.589Z,11.90
2019-05-21T09:51:05.801Z,11.90
2019-05-21T09:55:10.633Z,12.00
2019-05-21T09:59:28.134Z,12.00
2019-05-21T10:03:34.147Z,12.10
2019-05-21T10:07:40.698Z,12.20
2019-05-21T10:11:45.569Z,12.10
2019-05-21T10:15:50.472Z,12.10
2019-05-21T10:19:58.669Z,12.30
2019-05-21T10:24:01.915Z,12.20
2019-05-21T10:28:06.725Z,12.30
2019-05-21T10:32:12.005Z,12.50
2019-05-21T10:36:16.824Z,12.40
2019-05-21T10:40:21.816Z,12.60
2019-05-21T10:44:26.719Z,12.80
2019-05-21T10:48:31.609Z,12.80
2019-05-21T10:52:36.507Z,12.70
2019-05-21T10:56:48.009Z,12.90
2019-05-21T11:00:50.198Z,12.60
2019-05-21T11:04:59.290Z,12.70
2019-05-21T11:09:07.480Z,12.60
2019-05-21T11:13:12.469Z,12.70
2019-05-21T11:17:18.154Z,12.80
2019-05-21T11:21:22.964Z,12.80
2019-05-21T11:25:27.866Z,12.80
2019-05-21T11:29:32.699Z,12.80
2019-05-21T11:33:37.466Z,12.90
2019-05-21T11:37:42.204Z,13.00
2019-05-21T11:41:47.012Z,12.90
2019-05-21T11:45:51.756Z,12.80
2019-05-21T11:49:56.556Z,12.90
2019-05-21T11:54:01.487Z,13.00
2019-05-21T11:58:06.666Z,13.20
2019-05-21T12:02:11.555Z,13.30
2019-05-21T12:06:16.480Z,13.20
2019-05-21T12:10:21.393Z,13.00
2019-05-21T12:14:26.587Z,13.00
2019-05-21T12:18:31.475Z,13.00
2019-05-21T12:22:36.363Z,12.90
2019-05-21T12:26:41.270Z,13.00
2019-05-21T12:30:46.129Z,12.70
2019-05-21T12:34:51.031Z,12.70
2019-05-21T12:38:55.920Z,12.70
2019-05-21T12:43:00.846Z,12.80
2019-05-21T12:47:09.541Z,12.50
2019-05-21T12:51:12.420Z,12.40
2019-05-21T12:55:17.312Z,12.50
2019-05-21T12:59:22.230Z,12.60
2019-05-21T13:03:26.969Z,12.60
2019-05-21T13:07:31.804Z,12.60
2019-05-21T13:11:36.752Z,12.70
2019-05-21T13:15:41.616Z,12.60
2019-05-21T13:19:46.437Z,12.60
2019-05-21T13:23:51.276Z,12.50
2019-05-21T13:27:57.712Z,12.50
2019-05-21T13:32:02.723Z,12.50
2019-05-21T13:36:07.625Z,12.40
2019-05-21T13:40:13.786Z,12.40
2019-05-21T13:44:19.673Z,12.40
2019-05-21T13:48:24.504Z,12.40
2019-05-21T13:52:29.348Z,12.30
2019-05-21T13:56:34.309Z,12.30
2019-05-21T14:00:50.216Z,12.40
2019-05-21T14:04:55.178Z,12.10
2019-05-21T14:09:00.062Z,12.00
2019-05-21T14:13:05.168Z,12.10
2019-05-21T14:17:10.287Z,12.10
2019-05-21T14:21:15.230Z,11.90
2019-05-21T14:25:20.487Z,11.90
2019-05-21T14:29:26.599Z,12.10
2019-05-21T14:33:31.618Z,12.00
2019-05-21T14:37:36.534Z,11.90
2019-05-21T14:41:41.274Z,12.20
2019-05-21T14:45:46.014Z,12.10
2019-05-21T14:49:50.875Z,12.00
2019-05-21T14:54:03.110Z,12.00
2019-05-21T14:58:07.041Z,11.90
2019-05-21T15:02:11.824Z,11.90
2019-05-21T15:06:16.649Z,12.00
2019-05-21T15:10:21.551Z,11.80
2019-05-21T15:14:27.901Z,11.80
2019-05-21T15:18:32.789Z,11.80
2019-05-21T15:22:39.925Z,11.80
2019-05-21T15:26:44.845Z,11.60
2019-05-21T15:30:49.745Z,11.70
2019-05-21T15:34:54.633Z,11.60
2019-05-21T15:39:00.621Z,11.70
2019-05-21T15:43:07.109Z,11.70
2019-05-21T15:47:12.020Z,11.70
2019-05-21T15:51:16.857Z,11.80
2019-05-21T15:55:21.778Z,11.70
2019-05-21T15:59:26.584Z,11.80
2019-05-21T16:03:31.392Z,11.70
2019-05-21T16:07:36.277Z,11.70
2019-05-21T16:11:41.158Z,11.70
2019-05-21T16:15:46.081Z,11.50
2019-05-21T16:19:50.817Z,11.40
2019-05-21T16:23:55.638Z,11.30
2019-05-21T16:28:00.376Z,11.40
2019-05-21T16:32:05.302Z,11.40
2019-05-21T16:36:10.229Z,11.40
2019-05-21T16:40:16.237Z,11.30
2019-05-21T16:44:21.040Z,11.30
2019-05-21T16:48:25.948Z,11.30
2019-05-21T16:52:31.519Z,11.20
2019-05-21T16:56:36.340Z,11.30
2019-05-21T17:00:41.420Z,11.40
2019-05-21T17:04:46.249Z,11.40
2019-05-21T17:08:51.139Z,11.50
2019-05-21T17:12:55.936Z,11.50
2019-05-21T17:17:01.014Z,11.70
2019-05-21T17:21:05.863Z,11.60
2019-05-21T17:25:11.236Z,11.40
2019-05-21T17:29:16.164Z,11.30
2019-05-21T17:33:20.980Z,11.30
2019-05-21T17:37:25.808Z,11.30
2019-05-21T17:41:30.587Z,11.40
2019-05-21T17:45:35.488Z,11.40
2019-05-21T17:49:40.380Z,11.50
2019-05-21T17:53:45.223Z,11.60
2019-05-21T17:57:50.038Z,11.70
2019-05-21T18:01:55.404Z,11.60
2019-05-21T18:06:00.899Z,11.50
2019-05-21T18:10:07.900Z,11.50
2019-05-21T18:14:13.969Z,11.60
2019-05-21T18:18:18.979Z,11.70
2019-05-21T18:22:24.561Z,11.60
2019-05-21T18:26:29.465Z,11.60
2019-05-21T18:30:34.690Z,11.50
2019-05-21T18:34:39.543Z,11.60
2019-05-21T18:38:44.654Z,11.60
2019-05-21T18:42:50.755Z,11.60
2019-05-21T18:46:55.602Z,11.60
2019-05-21T18:51:00.484Z,11.60
2019-05-21T18:55:05.799Z,11.70
2019-05-21T18:59:11.787Z,11.70
2019-05-21T19:03:25.335Z,11.60
2019-05-21T19:07:23.166Z,11.50
2019-05-21T19:11:28.246Z,11.60
2019-05-21T19:15:33.441Z,11.80
2019-05-21T19:19:38.271Z,11.70
2019-05-21T19:23:43.168Z,11.60
2019-05-21T19:27:47.929Z,11.50
2019-05-21T19:31:52.804Z,11.50
2019-05-21T19:35:59.176Z,11.60
2019-05-21T19:40:05.436Z,11.70
2019-05-21T19:44:10.681Z,11.60
2019-05-21T19:48:15.630Z,11.70
2019-05-21T19:52:20.348Z,11.70
2019-05-21T19:56:25.441Z,11.40
2019-05-21T20:00:32.322Z,11.50
2019-05-21T20:04:37.241Z,11.60
2019-05-21T20:08:43.911Z,11.80
2019-05-21T20:12:49.207Z,11.70
2019-05-21T20:16:54.611Z,11.50
2019-05-21T20:21:00.855Z,11.40
2019-05-21T20:25:08.464Z,11.50
2019-05-21T20:29:14.491Z,11.50
2019-05-21T20:33:20.333Z,11.60
2019-05-21T20:37:26.881Z,11.60
2019-05-21T20:41:32.442Z,11.50
2019-05-21T20:45:40.093Z,11.60
2019-05-21T20:49:46.842Z,11.70
2019-05-21T20:53:51.707Z,11.70
2019-05-21T20:57:57.298Z,11.60
2019-05-21T21:02:06.718Z,11.60
2019-05-21T21:06:11.645Z,11.60
2019-05-21T21:10:17.228Z,11.60
2019-05-21T21:14:26.261Z,11.60
2019-05-21T21:18:31.173Z,11.50
2019-05-21T21:22:36.253Z,11.60
2019-05-21T21:26:41.699Z,11.50
2019-05-21T21:30:48.117Z,11.50
2019-05-21T21:34:52.923Z,11.40
2019-05-21T21:38:57.834Z,11.50
2019-05-21T21:43:02.698Z,11.60
2019-05-21T21:47:07.851Z,11.60
2019-05-21T21:51:13.815Z,11.70
2019-05-21T21:55:18.776Z,11.60
2019-05-21T21:59:23.577Z,11.60
2019-05-21T22:03:31.437Z,11.80
2019-05-21T22:07:38.649Z,11.60
2019-05-21T22:11:44.132Z,11.40
2019-05-21T22:15:48.992Z,11.40
2019-05-21T22:19:53.879Z,11.50
2019-05-21T22:23:59.285Z,11.50
2019-05-21T22:28:04.574Z,11.40
2019-05-21T22:32:09.579Z,11.50
2019-05-21T22:36:14.679Z,11.50
2019-05-21T22:40:20.301Z,11.40
2019-05-21T22:44:25.125Z,11.40
2019-05-21T22:48:30.227Z,11.40
2019-05-21T22:52:35.047Z,11.40
2019-05-21T22:56:39.894Z,11.40
2019-05-21T23:00:44.997Z,11.50
2019-05-21T23:04:50.804Z,11.50
2019-05-21T23:08:57.339Z,11.40
2019-05-21T23:13:02.165Z,11.50
2019-05-21T23:17:08.951Z,11.30
2019-05-21T23:21:28.204Z,11.50
2019-05-21T23:25:34.975Z,11.30
2019-05-21T23:29:39.863Z,11.40
2019-05-21T23:33:44.742Z,11.40
2019-05-21T23:37:50.989Z,11.30
2019-05-21T23:41:56.121Z,11.40
2019-05-21T23:46:02.890Z,11.30
2019-05-21T23:50:08.980Z,11.20
2019-05-21T23:54:13.793Z,11.20
2019-05-21T23:58:18.510Z,11.20
